createdAt,value
2022-12-27T00:01:38.667Z,100.00
2022-12-27T00:04:06.476Z,100.00
2022-12-27T00:06:34.096Z,100.00
2022-12-27T00:09:02.623Z,100.00
2022-12-27T00:11:30.621Z,100.00
2022-12-27T00:13:59.890Z,100.00
2022-12-27T00:16:27.905Z,100.00
2022-12-27T00:18:57.182Z,100.00
2022-12-27T00:21:25.443Z,100.00
2022-12-27T00:23:55.215Z,100.00
2022-12-27T00:26:24.423Z,100.00
2022-12-27T00:28:52.351Z,100.00
2022-12-27T00:31:21.326Z,100.00
2022-12-27T00:33:51.578Z,100.00
2022-12-27T00:36:22.510Z,100.00
2022-12-27T00:38:50.487Z,100.00
2022-12-27T00:41:18.407Z,100.00
2022-12-27T00:43:46.611Z,100.00
2022-12-27T00:46:14.783Z,100.00
2022-12-27T00:48:43.054Z,100.00
2022-12-27T00:51:15.439Z,100.00
2022-12-27T00:53:44.734Z,100.00
2022-12-27T00:56:15.351Z,100.00
2022-12-27T00:58:42.945Z,100.00
2022-12-27T01:01:12.413Z,100.00
2022-12-27T01:03:40.546Z,100.00
2022-12-27T01:06:10.064Z,100.00
2022-12-27T01:08:37.886Z,100.00
2022-12-27T01:11:07.554Z,100.00
2022-12-27T01:13:35.549Z,100.00
2022-12-27T01:16:03.575Z,100.00
2022-12-27T01:18:31.194Z,100.00
2022-12-27T01:20:58.780Z,100.00
2022-12-27T01:23:27.704Z,100.00
2022-12-27T01:26:00.830Z,100.00
2022-12-27T01:28:29.935Z,100.00
2022-12-27T01:30:57.667Z,100.00
2022-12-27T01:33:25.572Z,100.00
2022-12-27T01:35:53.272Z,100.00
2022-12-27T01:38:20.883Z,100.00
2022-12-27T01:40:48.466Z,100.00
2022-12-27T01:43:17.181Z,100.00
2022-12-27T01:45:47.588Z,100.00
2022-12-27T01:48:17.627Z,100.00
2022-12-27T01:50:47.416Z,100.00
2022-12-27T01:53:17.808Z,100.00
2022-12-27T01:55:48.932Z,100.00
2022-12-27T01:58:20.242Z,100.00
2022-12-27T02:00:50.338Z,100.00
2022-12-27T02:03:21.722Z,100.00
2022-12-27T02:05:50.750Z,100.00
2022-12-27T02:08:31.744Z,100.00
2022-12-27T02:10:59.881Z,100.00
2022-12-27T02:13:28.382Z,100.00
2022-12-27T02:15:57.334Z,100.00
2022-12-27T02:18:24.954Z,100.00
2022-12-27T02:21:09.072Z,100.00
2022-12-27T02:24:03.713Z,100.00
2022-12-27T02:26:47.068Z,100.00
2022-12-27T02:29:23.925Z,100.00
2022-12-27T02:31:57.530Z,100.00
2022-12-27T02:34:27.786Z,100.00
2022-12-27T02:37:01.982Z,100.00
2022-12-27T02:39:30.595Z,100.00
2022-12-27T02:42:21.576Z,100.00
2022-12-27T02:45:10.464Z,100.00
2022-12-27T02:47:56.219Z,100.00
2022-12-27T02:50:41.731Z,100.00
2022-12-27T02:53:13.830Z,100.00
2022-12-27T02:56:09.540Z,100.00
2022-12-27T02:58:44.797Z,100.00
2022-12-27T03:01:36.940Z,100.00
2022-12-27T03:04:14.621Z,100.00
2022-12-27T03:06:54.144Z,100.00
2022-12-27T03:10:07.412Z,100.00
2022-12-27T03:13:04.061Z,100.00
2022-12-27T03:15:55.043Z,100.00
2022-12-27T03:18:29.222Z,100.00
2022-12-27T03:21:15.699Z,100.00
2022-12-27T03:24:02.606Z,100.00
2022-12-27T03:26:32.023Z,100.00
2022-12-27T03:29:18.086Z,100.00
2022-12-27T03:32:11.767Z,100.00
2022-12-27T03:34:44.520Z,100.00
2022-12-27T03:37:32.693Z,100.00
2022-12-27T03:40:06.479Z,100.00
2022-12-27T03:42:56.314Z,100.00
2022-12-27T03:45:44.547Z,100.00
2022-12-27T03:48:14.240Z,100.00
2022-12-27T03:50:46.363Z,100.00
2022-12-27T03:53:15.473Z,100.00
2022-12-27T03:55:43.377Z,100.00
2022-12-27T03:58:11.001Z,100.00
2022-12-27T04:00:38.590Z,100.00
2022-12-27T04:03:06.240Z,100.00
2022-12-27T04:05:33.853Z,100.00
2022-12-27T04:08:20.511Z,100.00
2022-12-27T04:11:05.977Z,100.00
2022-12-27T04:13:51.302Z,100.00
2022-12-27T04:16:36.679Z,100.00
2022-12-27T04:19:22.047Z,100.00
2022-12-27T04:22:07.465Z,100.00
2022-12-27T04:24:54.126Z,100.00
2022-12-27T04:27:39.336Z,100.00
2022-12-27T04:30:25.720Z,100.00
2022-12-27T04:33:10.989Z,100.00
2022-12-27T04:35:38.590Z,100.00
2022-12-27T04:38:06.197Z,100.00
2022-12-27T04:40:52.739Z,100.00
2022-12-27T04:43:38.156Z,100.00
2022-12-27T04:46:23.427Z,100.00
2022-12-27T04:49:08.868Z,100.00
2022-12-27T04:51:54.029Z,100.00
2022-12-27T04:54:40.383Z,100.00
2022-12-27T04:57:09.341Z,100.00
2022-12-27T04:59:54.618Z,100.00
2022-12-27T05:02:22.465Z,100.00
2022-12-27T05:04:50.334Z,100.00
2022-12-27T05:07:35.496Z,100.00
2022-12-27T05:10:22.852Z,100.00
2022-12-27T05:13:09.589Z,100.00
2022-12-27T05:15:37.282Z,100.00
2022-12-27T05:18:04.971Z,100.00
2022-12-27T05:20:34.830Z,100.00
2022-12-27T05:23:16.401Z,100.00
2022-12-27T05:25:44.592Z,100.00
2022-12-27T05:28:14.470Z,100.00
2022-12-27T05:30:43.902Z,100.00
2022-12-27T05:33:11.707Z,100.00
2022-12-27T05:35:39.439Z,100.00
2022-12-27T05:38:07.585Z,100.00
2022-12-27T05:40:35.356Z,100.00
2022-12-27T05:43:04.281Z,100.00
2022-12-27T05:45:33.950Z,100.00
2022-12-27T05:48:01.589Z,100.00
2022-12-27T05:50:29.195Z,100.00
2022-12-27T05:52:56.980Z,100.00
2022-12-27T05:55:24.680Z,100.00
2022-12-27T05:57:52.305Z,100.00
2022-12-27T06:00:20.128Z,100.00
2022-12-27T06:02:49.167Z,100.00
2022-12-27T06:05:16.845Z,100.00
2022-12-27T06:07:44.511Z,100.00
2022-12-27T06:10:12.472Z,100.00
2022-12-27T06:12:40.059Z,100.00
2022-12-27T06:15:08.443Z,100.00
2022-12-27T06:17:36.009Z,100.00
2022-12-27T06:20:05.692Z,100.00
2022-12-27T06:22:33.287Z,100.00
2022-12-27T06:25:00.829Z,100.00
2022-12-27T06:27:28.439Z,100.00
2022-12-27T06:29:56.050Z,100.00
2022-12-27T06:32:23.663Z,100.00
2022-12-27T06:34:51.237Z,100.00
2022-12-27T06:37:20.230Z,100.00
2022-12-27T06:39:47.829Z,100.00
2022-12-27T06:42:15.390Z,100.00
2022-12-27T06:44:43.035Z,100.00
2022-12-27T06:47:10.627Z,100.00
2022-12-27T06:49:38.206Z,100.00
2022-12-27T06:52:06.210Z,100.00
2022-12-27T06:54:35.243Z,100.00
2022-12-27T06:57:02.871Z,100.00
2022-12-27T06:59:30.447Z,100.00
2022-12-27T07:01:58.190Z,100.00
2022-12-27T07:04:25.900Z,100.00
2022-12-27T07:06:53.476Z,100.00
2022-12-27T07:09:21.047Z,100.00
2022-12-27T07:11:50.011Z,100.00
2022-12-27T07:14:17.599Z,100.00
2022-12-27T07:16:45.248Z,100.00
2022-12-27T07:19:12.842Z,100.00
2022-12-27T07:21:40.385Z,100.00
2022-12-27T07:24:08.620Z,100.00
2022-12-27T07:26:36.229Z,100.00
2022-12-27T07:29:05.567Z,100.00
2022-12-27T07:31:34.016Z,100.00
2022-12-27T07:34:03.190Z,100.00
2022-12-27T07:36:33.843Z,100.00
2022-12-27T07:39:01.505Z,100.00
2022-12-27T07:41:29.087Z,100.00
2022-12-27T07:43:56.813Z,100.00
2022-12-27T07:46:27.389Z,100.00
2022-12-27T07:48:56.162Z,100.00
2022-12-27T07:51:25.074Z,100.00
2022-12-27T07:53:53.066Z,100.00
2022-12-27T07:56:26.168Z,100.00
2022-12-27T07:58:55.527Z,100.00
2022-12-27T08:01:25.621Z,100.00
2022-12-27T08:03:53.429Z,100.00
2022-12-27T08:06:23.954Z,100.00
2022-12-27T08:08:52.688Z,100.00
2022-12-27T08:11:20.427Z,100.00
2022-12-27T08:13:48.049Z,100.00
2022-12-27T08:16:18.024Z,100.00
2022-12-27T08:18:47.092Z,100.00
2022-12-27T08:21:15.888Z,100.00
2022-12-27T08:23:43.648Z,100.00
2022-12-27T08:26:11.433Z,100.00
2022-12-27T08:28:39.445Z,100.00
2022-12-27T08:31:08.087Z,100.00
2022-12-27T08:33:36.369Z,100.00
2022-12-27T08:36:22.354Z,100.00
2022-12-27T08:38:55.247Z,100.00
2022-12-27T08:41:22.997Z,100.00
2022-12-27T08:43:50.681Z,100.00
2022-12-27T08:46:19.518Z,100.00
2022-12-27T08:48:48.708Z,100.00
2022-12-27T08:51:26.585Z,100.00
2022-12-27T08:54:00.685Z,100.00
2022-12-27T08:56:28.321Z,100.00
2022-12-27T08:58:55.940Z,100.00
2022-12-27T09:01:25.448Z,100.00
2022-12-27T09:03:53.198Z,100.00
2022-12-27T09:06:24.301Z,100.00
2022-12-27T09:08:52.550Z,100.00
2022-12-27T09:11:21.752Z,100.00
2022-12-27T09:13:49.446Z,100.00
2022-12-27T09:16:19.730Z,100.00
2022-12-27T09:18:49.695Z,100.00
2022-12-27T09:21:17.800Z,100.00
2022-12-27T09:23:47.821Z,100.00
2022-12-27T09:26:17.936Z,100.00
2022-12-27T09:28:46.517Z,100.00
2022-12-27T09:31:15.721Z,100.00
2022-12-27T09:33:43.736Z,100.00
2022-12-27T09:36:12.817Z,100.00
2022-12-27T09:38:40.892Z,100.00
2022-12-27T09:41:40.826Z,100.00
2022-12-27T09:44:06.367Z,100.00
2022-12-27T09:46:37.507Z,100.00
2022-12-27T09:49:05.155Z,100.00
2022-12-27T09:51:36.006Z,100.00
2022-12-27T09:54:08.418Z,100.00
2022-12-27T09:57:09.542Z,100.00
2022-12-27T09:59:27.058Z,100.00
2022-12-27T10:01:54.870Z,100.00
2022-12-27T10:04:22.784Z,100.00
2022-12-27T10:07:06.162Z,100.00
2022-12-27T10:09:56.263Z,100.00
2022-12-27T10:12:36.209Z,100.00
2022-12-27T10:15:17.948Z,100.00
2022-12-27T10:17:53.503Z,100.00
2022-12-27T10:20:31.286Z,100.00
2022-12-27T10:23:06.236Z,100.00
2022-12-27T10:25:35.119Z,100.00
2022-12-27T10:28:13.817Z,100.00
2022-12-27T10:30:41.643Z,100.00
2022-12-27T10:33:15.009Z,100.00
2022-12-27T10:35:42.618Z,100.00
2022-12-27T10:38:11.550Z,100.00
2022-12-27T10:40:41.219Z,100.00
2022-12-27T10:43:19.244Z,100.00
2022-12-27T10:45:46.987Z,100.00
2022-12-27T10:48:17.468Z,94.78
2022-12-27T10:50:51.707Z,96.90
2022-12-27T10:53:34.991Z,94.65
2022-12-27T10:56:08.344Z,96.47
2022-12-27T10:58:40.974Z,96.52
2022-12-27T11:01:16.868Z,96.16
2022-12-27T11:03:44.657Z,97.60
2022-12-27T11:06:23.710Z,93.66
2022-12-27T11:08:52.777Z,96.27
2022-12-27T11:11:22.492Z,95.35
2022-12-27T11:13:52.537Z,99.55
2022-12-27T11:16:29.193Z,100.00
2022-12-27T11:18:58.854Z,99.59
2022-12-27T11:21:28.138Z,100.00
2022-12-27T11:23:58.935Z,100.00
2022-12-27T11:26:29.425Z,100.00
2022-12-27T11:29:00.125Z,97.99
2022-12-27T11:31:32.060Z,96.49
2022-12-27T11:34:01.824Z,99.05
2022-12-27T11:36:32.215Z,99.79
2022-12-27T11:39:00.617Z,100.00
2022-12-27T11:41:35.899Z,100.00
2022-12-27T11:44:09.516Z,99.53
2022-12-27T11:46:42.045Z,100.00
2022-12-27T11:49:18.190Z,98.95
2022-12-27T11:52:32.313Z,100.00
2022-12-27T11:55:19.659Z,98.83
2022-12-27T11:58:17.070Z,100.00
2022-12-27T12:00:53.437Z,100.00
2022-12-27T12:03:49.457Z,97.34
2022-12-27T12:06:19.109Z,99.58
2022-12-27T12:09:00.603Z,96.37
2022-12-27T12:11:37.675Z,95.90
2022-12-27T12:14:54.710Z,98.60
2022-12-27T12:17:42.559Z,100.00
2022-12-27T12:20:24.200Z,100.00
2022-12-27T12:23:04.671Z,100.00
2022-12-27T12:25:52.069Z,100.00
2022-12-27T12:28:58.221Z,100.00
2022-12-27T12:31:36.855Z,95.81
2022-12-27T12:34:18.273Z,96.86
2022-12-27T12:36:56.488Z,97.98
2022-12-27T12:39:30.589Z,98.57
2022-12-27T12:42:15.029Z,94.67
2022-12-27T12:45:00.197Z,97.85
2022-12-27T12:47:41.080Z,99.04
2022-12-27T12:50:22.808Z,98.42
2022-12-27T12:53:14.550Z,96.60
2022-12-27T12:55:53.359Z,97.92
2022-12-27T12:58:34.013Z,96.45
2022-12-27T13:01:16.496Z,97.94
2022-12-27T13:04:02.987Z,96.95
2022-12-27T13:06:58.108Z,97.68
2022-12-27T13:09:35.218Z,97.44
2022-12-27T13:12:06.068Z,98.81
2022-12-27T13:14:48.028Z,97.17
2022-12-27T13:17:19.727Z,97.48
2022-12-27T13:20:02.585Z,94.32
2022-12-27T13:22:41.235Z,93.69
2022-12-27T13:25:22.675Z,92.91
2022-12-27T13:27:54.821Z,96.25
2022-12-27T13:30:22.888Z,97.10
2022-12-27T13:33:17.367Z,92.53
2022-12-27T13:35:59.642Z,92.97
2022-12-27T13:38:44.519Z,93.49
2022-12-27T13:41:38.705Z,93.41
2022-12-27T13:44:36.322Z,97.13
2022-12-27T13:47:23.018Z,96.53
2022-12-27T13:50:04.659Z,94.34
2022-12-27T13:52:53.270Z,94.96
2022-12-27T13:55:38.248Z,93.48
2022-12-27T13:58:19.467Z,96.56
2022-12-27T14:00:52.165Z,94.88
2022-12-27T14:03:48.108Z,93.98
2022-12-27T14:06:35.937Z,97.08
2022-12-27T14:09:37.773Z,98.81
2022-12-27T14:12:39.835Z,98.25
2022-12-27T14:15:09.719Z,98.38
2022-12-27T14:17:42.081Z,99.19
2022-12-27T14:20:26.549Z,99.08
2022-12-27T14:23:05.814Z,100.00
2022-12-27T14:26:10.725Z,100.00
2022-12-27T14:29:15.910Z,99.75
2022-12-27T14:31:57.829Z,99.64
2022-12-27T14:34:59.508Z,100.00
2022-12-27T14:38:12.861Z,100.00
2022-12-27T14:40:45.838Z,99.83
2022-12-27T14:44:00.857Z,100.00
2022-12-27T14:47:00.780Z,100.00
2022-12-27T14:50:14.322Z,99.44
2022-12-27T14:53:08.449Z,99.75
2022-12-27T14:55:50.219Z,100.00
2022-12-27T14:58:30.799Z,100.00
2022-12-27T15:01:11.985Z,100.00
2022-12-27T15:03:53.125Z,100.00
2022-12-27T15:06:28.704Z,100.00
2022-12-27T15:09:07.150Z,100.00
2022-12-27T15:11:46.257Z,100.00
2022-12-27T15:14:26.950Z,100.00
2022-12-27T15:17:01.155Z,100.00
2022-12-27T15:19:45.573Z,100.00
2022-12-27T15:22:21.102Z,100.00
2022-12-27T15:24:54.096Z,100.00
2022-12-27T15:27:27.757Z,100.00
2022-12-27T15:30:07.279Z,100.00
2022-12-27T15:32:46.972Z,100.00
2022-12-27T15:35:34.220Z,100.00
2022-12-27T15:38:12.002Z,100.00
2022-12-27T15:41:16.494Z,100.00
2022-12-27T15:44:06.571Z,100.00
2022-12-27T15:47:02.371Z,100.00
2022-12-27T15:49:51.571Z,100.00
2022-12-27T15:52:25.459Z,100.00
2022-12-27T15:55:07.031Z,100.00
2022-12-27T15:58:00.328Z,100.00
2022-12-27T16:00:33.548Z,100.00
2022-12-27T16:03:03.240Z,100.00
2022-12-27T16:06:28.685Z,100.00
2022-12-27T16:09:24.413Z,100.00
2022-12-27T16:12:02.081Z,100.00
2022-12-27T16:14:31.440Z,100.00
2022-12-27T16:17:11.869Z,100.00
2022-12-27T16:20:16.244Z,100.00
2022-12-27T16:22:45.188Z,100.00
2022-12-27T16:25:31.380Z,100.00
2022-12-27T16:28:02.215Z,100.00
2022-12-27T16:31:33.033Z,100.00
2022-12-27T16:38:03.593Z,100.00
2022-12-27T16:40:46.103Z,100.00
2022-12-27T16:43:49.632Z,100.00
2022-12-27T16:46:21.773Z,100.00
2022-12-27T16:49:00.476Z,100.00
2022-12-27T16:51:33.811Z,100.00
2022-12-27T16:54:07.209Z,100.00
2022-12-27T16:56:37.467Z,100.00
2022-12-27T16:59:43.567Z,100.00
2022-12-27T17:02:33.304Z,100.00
2022-12-27T17:05:01.514Z,100.00
2022-12-27T17:07:45.091Z,100.00
2022-12-27T17:10:32.968Z,100.00
2022-12-27T17:13:06.602Z,100.00
2022-12-27T17:15:34.298Z,100.00
2022-12-27T17:18:25.604Z,100.00
2022-12-27T17:21:03.814Z,100.00
2022-12-27T17:23:31.930Z,100.00
2022-12-27T17:26:11.828Z,100.00
2022-12-27T17:28:46.524Z,100.00
2022-12-27T17:31:20.677Z,100.00
2022-12-27T17:33:59.346Z,100.00
2022-12-27T17:36:36.264Z,100.00
2022-12-27T17:39:11.899Z,100.00
2022-12-27T17:42:04.907Z,100.00
2022-12-27T17:44:42.085Z,100.00
2022-12-27T17:47:18.679Z,100.00
2022-12-27T17:49:46.353Z,100.00
2022-12-27T17:52:34.945Z,100.00
2022-12-27T17:55:34.509Z,100.00
2022-12-27T17:58:05.887Z,100.00
2022-12-27T18:00:37.489Z,100.00
2022-12-27T18:03:09.057Z,100.00
2022-12-27T18:05:40.868Z,100.00
2022-12-27T18:08:19.814Z,100.00
2022-12-27T18:10:47.435Z,100.00
2022-12-27T18:13:18.812Z,100.00
2022-12-27T18:15:50.071Z,100.00
2022-12-27T18:18:20.150Z,100.00
2022-12-27T18:20:47.743Z,100.00
2022-12-27T18:23:18.284Z,100.00
2022-12-27T18:25:57.415Z,100.00
2022-12-27T18:28:32.511Z,100.00
2022-12-27T18:31:04.821Z,100.00
2022-12-27T18:33:35.417Z,100.00
2022-12-27T18:36:05.872Z,100.00
2022-12-27T18:38:36.373Z,100.00
2022-12-27T18:41:07.577Z,100.00
2022-12-27T18:43:35.879Z,100.00
2022-12-27T18:46:06.144Z,100.00
2022-12-27T18:48:35.973Z,100.00
2022-12-27T18:51:04.328Z,100.00
2022-12-27T18:53:33.080Z,100.00
2022-12-27T18:56:02.243Z,100.00
2022-12-27T18:58:29.923Z,100.00
2022-12-27T19:01:01.433Z,100.00
2022-12-27T19:03:35.218Z,100.00
2022-12-27T19:06:08.166Z,100.00
2022-12-27T19:08:39.944Z,100.00
2022-12-27T19:11:08.156Z,100.00
2022-12-27T19:13:43.566Z,100.00
2022-12-27T19:16:21.910Z,100.00
2022-12-27T19:18:53.748Z,100.00
2022-12-27T19:21:29.827Z,100.00
2022-12-27T19:23:57.472Z,100.00
2022-12-27T19:26:31.974Z,100.00
2022-12-27T19:29:03.186Z,100.00
2022-12-27T19:31:31.340Z,100.00
2022-12-27T19:34:02.711Z,100.00
2022-12-27T19:36:33.117Z,100.00
2022-12-27T19:39:01.470Z,100.00
2022-12-27T19:41:29.215Z,100.00
2022-12-27T19:43:57.050Z,100.00
2022-12-27T19:46:30.782Z,100.00
2022-12-27T19:49:40.407Z,100.00
2022-12-27T19:51:48.092Z,100.00
2022-12-27T19:54:17.162Z,100.00
2022-12-27T19:56:44.763Z,100.00
2022-12-27T19:59:15.989Z,100.00
2022-12-27T20:01:45.429Z,100.00
2022-12-27T20:04:14.626Z,100.00
2022-12-27T20:06:42.395Z,100.00
2022-12-27T20:09:14.485Z,100.00
2022-12-27T20:11:43.300Z,100.00
2022-12-27T20:14:11.328Z,100.00
2022-12-27T20:16:38.924Z,100.00
2022-12-27T20:19:06.542Z,100.00
2022-12-27T20:21:35.549Z,100.00
2022-12-27T20:24:03.287Z,100.00
2022-12-27T20:26:30.887Z,100.00
2022-12-27T20:28:59.672Z,100.00
2022-12-27T20:31:27.328Z,100.00
2022-12-27T20:33:56.401Z,100.00
2022-12-27T20:36:24.215Z,100.00
2022-12-27T20:38:53.181Z,100.00
2022-12-27T20:41:22.874Z,100.00
2022-12-27T20:43:55.070Z,100.00
2022-12-27T20:46:22.797Z,100.00
2022-12-27T20:48:50.769Z,100.00
2022-12-27T20:51:19.509Z,100.00
2022-12-27T20:53:49.042Z,100.00
2022-12-27T20:56:18.348Z,100.00
2022-12-27T20:58:45.923Z,100.00
2022-12-27T21:01:15.856Z,100.00
2022-12-27T21:03:44.537Z,100.00
2022-12-27T21:06:13.780Z,100.00
2022-12-27T21:08:47.782Z,100.00
2022-12-27T21:11:19.803Z,100.00
2022-12-27T21:13:48.825Z,100.00
2022-12-27T21:16:18.311Z,100.00
2022-12-27T21:18:46.096Z,100.00
2022-12-27T21:21:19.456Z,100.00
2022-12-27T21:23:47.763Z,100.00
2022-12-27T21:26:16.778Z,100.00
2022-12-27T21:28:45.831Z,100.00
2022-12-27T21:31:14.167Z,100.00
2022-12-27T21:33:41.965Z,100.00
2022-12-27T21:36:12.463Z,100.00
2022-12-27T21:38:40.104Z,100.00
2022-12-27T21:41:10.904Z,100.00
2022-12-27T21:43:38.548Z,100.00
2022-12-27T21:46:10.488Z,100.00
2022-12-27T21:48:38.671Z,100.00
2022-12-27T21:51:06.911Z,100.00
2022-12-27T21:53:34.700Z,100.00
2022-12-27T21:56:02.406Z,100.00
2022-12-27T21:58:30.980Z,100.00
2022-12-27T22:01:08.079Z,100.00
2022-12-27T22:03:39.220Z,100.00
2022-12-27T22:06:11.415Z,100.00
2022-12-27T22:08:38.906Z,100.00
2022-12-27T22:11:06.594Z,100.00
2022-12-27T22:13:34.275Z,100.00
2022-12-27T22:16:03.823Z,100.00
2022-12-27T22:18:32.321Z,100.00
2022-12-27T22:21:02.480Z,100.00
2022-12-27T22:23:31.504Z,100.00
2022-12-27T22:25:59.114Z,100.00
2022-12-27T22:28:26.968Z,100.00
2022-12-27T22:30:54.768Z,100.00
2022-12-27T22:33:22.428Z,100.00
2022-12-27T22:35:50.066Z,100.00
2022-12-27T22:38:19.063Z,100.00
2022-12-27T22:40:47.072Z,100.00
2022-12-27T22:43:14.941Z,100.00
2022-12-27T22:45:43.922Z,100.00
2022-12-27T22:48:13.071Z,100.00
2022-12-27T22:50:40.648Z,100.00
2022-12-27T22:53:08.203Z,100.00
2022-12-27T22:55:41.134Z,100.00
2022-12-27T22:58:08.787Z,100.00
2022-12-27T23:00:36.321Z,100.00
2022-12-27T23:03:03.898Z,100.00
2022-12-27T23:05:31.480Z,100.00
2022-12-27T23:08:05.117Z,100.00
2022-12-27T23:10:34.881Z,100.00
2022-12-27T23:13:03.831Z,100.00
2022-12-27T23:15:31.437Z,100.00
2022-12-27T23:17:59.046Z,100.00
2022-12-27T23:20:26.666Z,100.00
2022-12-27T23:22:54.257Z,100.00
2022-12-27T23:25:21.829Z,100.00
2022-12-27T23:27:49.395Z,100.00
2022-12-27T23:30:19.455Z,100.00
2022-12-27T23:32:47.082Z,100.00
2022-12-27T23:35:14.797Z,100.00
2022-12-27T23:37:42.384Z,100.00
2022-12-27T23:40:11.380Z,100.00
2022-12-27T23:42:39.014Z,100.00
2022-12-27T23:45:07.532Z,100.00
2022-12-27T23:47:36.467Z,100.00
2022-12-27T23:50:04.290Z,100.00
2022-12-27T23:52:31.937Z,100.00
2022-12-27T23:54:59.567Z,100.00
2022-12-27T23:57:27.219Z,100.00
2022-12-27T23:59:55.403Z,100.00
